Time;durP1;ratioP1;P1;durP2;ratioP2;P2;SDS_P1;SDS_P2;PMS_P1;PMS_P2;Temp;Humidity;BMP_temperature;BMP_pressure;BME280_temperature;BME280_humidity;BME280_pressure;Samples;Min_cycle;Max_cycle;Signal;HPM_P1;HPM_P2
2022/08/19 00:02:15;;;;;;;9.10;6.70;;;;;;;19.64;79.24;100083.03;5085951;28;20468;-83
2022/08/19 00:04:42;;;;;;;10.07;6.70;;;;;;;19.59;79.65;100093.66;5076679;28;20483;-83
2022/08/19 00:07:08;;;;;;;10.23;7.80;;;;;;;19.54;79.81;100085.28;5080331;28;21002;-84
2022/08/19 00:09:35;;;;;;;10.57;6.70;;;;;;;19.53;79.91;100091.75;5084911;28;20432;-84
2022/08/19 00:12:02;;;;;;;8.00;6.93;;;;;;;19.50;80.04;100086.75;5072348;28;20499;-83
2022/08/19 00:14:31;;;;;;;8.60;6.70;;;;;;;19.46;80.10;100086.31;5068957;28;20456;-84
2022/08/19 00:16:59;;;;;;;11.40;7.40;;;;;;;19.40;80.56;100080.88;5055784;28;20473;-82
2022/08/19 00:19:26;;;;;;;9.83;7.53;;;;;;;19.40;80.58;100081.69;5078048;28;20532;-80
2022/08/19 00:21:54;;;;;;;10.10;8.07;;;;;;;19.38;80.49;100079.19;5075325;28;20469;-80
2022/08/19 00:24:20;;;;;;;15.27;8.20;;;;;;;19.34;80.63;100085.22;5065739;28;20509;-80
2022/08/19 00:26:48;;;;;;;11.33;7.30;;;;;;;19.33;80.92;100089.78;5085037;28;21129;-80
2022/08/19 00:29:16;;;;;;;8.93;8.03;;;;;;;19.30;80.91;100092.06;5070837;28;20956;-81
2022/08/19 00:31:43;;;;;;;8.47;7.20;;;;;;;19.29;81.06;100090.41;5069724;28;21007;-81
2022/08/19 00:34:14;;;;;;;9.07;7.80;;;;;;;19.26;81.01;100075.38;5076633;28;20478;-81
2022/08/19 00:36:41;;;;;;;11.70;8.00;;;;;;;19.28;81.20;100072.47;5073416;28;20477;-81
2022/08/19 00:39:08;;;;;;;12.60;8.20;;;;;;;19.22;81.51;100059.72;5083509;28;20436;-82
2022/08/19 00:41:35;;;;;;;11.13;8.97;;;;;;;19.21;81.56;100061.59;5065479;28;21085;-81
2022/08/19 00:44:04;;;;;;;10.17;8.43;;;;;;;19.21;81.49;100058.06;5072067;28;20455;-81
2022/08/19 00:46:32;;;;;;;12.40;9.30;;;;;;;19.18;81.57;100067.41;5081669;28;20488;-81
2022/08/19 00:48:59;;;;;;;10.63;9.33;;;;;;;19.12;82.01;100066.34;5084872;28;20455;-81
2022/08/19 00:51:29;;;;;;;12.20;9.70;;;;;;;19.12;81.73;100074.47;5076993;28;20929;-81
2022/08/19 00:53:58;;;;;;;10.13;9.13;;;;;;;19.24;81.12;100068.50;5049821;28;20529;-80
2022/08/19 00:56:26;;;;;;;17.97;9.53;;;;;;;19.12;81.88;100068.22;5064594;28;20822;-81
2022/08/19 00:58:53;;;;;;;13.53;9.77;;;;;;;19.16;81.54;100070.31;5046213;28;20437;-81
2022/08/19 01:01:20;;;;;;;11.37;8.63;;;;;;;19.13;81.30;100065.31;5072487;28;20490;-81
2022/08/19 01:03:46;;;;;;;13.33;9.37;;;;;;;19.07;81.61;100076.94;5084203;28;20475;-81
2022/08/19 01:06:14;;;;;;;11.07;8.57;;;;;;;19.04;81.65;100068.38;5075718;28;20488;-82
2022/08/19 01:08:42;;;;;;;12.67;9.53;;;;;;;19.00;81.90;100065.25;5070046;28;20451;-81
2022/08/19 01:11:09;;;;;;;15.00;10.10;;;;;;;18.95;82.16;100063.13;5067093;28;20793;-78
2022/08/19 01:13:36;;;;;;;11.37;10.23;;;;;;;18.96;82.32;100064.81;5064397;28;21111;-78
2022/08/19 01:16:06;;;;;;;11.93;9.90;;;;;;;18.91;82.30;100063.75;5079227;28;20483;-78
2022/08/19 01:18:34;;;;;;;11.60;8.87;;;;;;;18.87;82.40;100059.75;5084149;28;20440;-79
2022/08/19 01:21:07;;;;;;;10.17;8.73;;;;;;;18.90;82.45;100054.75;5081274;28;20845;-79
2022/08/19 01:23:44;;;;;;;11.20;9.40;;;;;;;18.81;82.67;100056.78;5067145;28;20479;-78
2022/08/19 01:26:13;;;;;;;10.60;9.60;;;;;;;18.80;82.96;100046.13;5068675;28;20506;-77
2022/08/19 01:28:40;;;;;;;12.07;9.30;;;;;;;18.74;83.19;100036.94;5067895;28;20910;-78
2022/08/19 01:31:14;;;;;;;11.90;9.40;;;;;;;18.72;83.27;100041.72;5064912;28;20820;-78
2022/08/19 01:33:41;;;;;;;11.90;10.00;;;;;;;18.73;83.05;100039.84;5063800;28;20511;-78
2022/08/19 01:36:10;;;;;;;13.33;9.90;;;;;;;18.70;83.37;100038.38;5078346;28;20585;-78
2022/08/19 01:38:41;;;;;;;12.40;9.73;;;;;;;18.70;83.62;100037.56;5069509;28;20453;-79
2022/08/19 01:41:07;;;;;;;18.13;10.43;;;;;;;18.60;83.90;100029.78;5079027;28;20471;-79
2022/08/19 01:43:34;;;;;;;13.93;11.13;;;;;;;18.59;84.29;100028.94;5083855;28;20479;-79
2022/08/19 01:46:03;;;;;;;14.53;10.30;;;;;;;18.55;83.87;100021.41;5075098;28;20480;-78
2022/08/19 01:48:34;;;;;;;13.80;10.47;;;;;;;18.50;84.09;99999.50;5064160;28;20964;-79
2022/08/19 01:51:01;;;;;;;12.00;9.40;;;;;;;18.51;84.12;99995.78;5064359;28;20465;-79
2022/08/19 01:53:28;;;;;;;12.50;9.93;;;;;;;18.47;84.33;99989.94;5064373;28;20467;-79
2022/08/19 01:55:56;;;;;;;11.70;9.80;;;;;;;18.47;84.69;99991.78;5063086;28;20504;-78
2022/08/19 01:58:30;;;;;;;13.07;9.73;;;;;;;18.41;84.73;99993.41;5066770;28;20449;-78
2022/08/19 02:00:57;;;;;;;13.40;10.53;;;;;;;18.37;84.89;99994.84;5064975;28;20473;-77
2022/08/19 02:03:23;;;;;;;12.23;10.50;;;;;;;18.36;85.01;99991.28;5067754;28;20475;-78
2022/08/19 02:05:55;;;;;;;11.50;10.00;;;;;;;18.29;85.48;99987.72;5071144;28;20861;-77
2022/08/19 02:08:22;;;;;;;13.43;10.43;;;;;;;18.30;85.19;99994.81;5082859;28;20440;-77
2022/08/19 02:10:49;;;;;;;17.67;10.90;;;;;;;18.23;85.27;100002.88;5075378;28;20522;-77
2022/08/19 02:13:18;;;;;;;16.70;11.87;;;;;;;18.10;86.01;100002.75;5076900;28;20449;-77
2022/08/19 02:15:44;;;;;;;15.70;12.97;;;;;;;18.11;86.05;99990.91;5064882;28;20469;-78
2022/08/19 02:18:11;;;;;;;14.00;11.57;;;;;;;18.13;85.98;99988.84;5083872;28;20479;-77
2022/08/19 02:20:39;;;;;;;15.20;12.50;;;;;;;18.13;86.12;99991.56;5072041;28;20488;-77
2022/08/19 02:23:06;;;;;;;13.50;12.10;;;;;;;18.11;86.02;100000.91;5070006;28;20444;-77
2022/08/19 02:25:32;;;;;;;15.90;11.80;;;;;;;18.08;86.20;99990.47;5072285;28;20469;-77
2022/08/19 02:27:59;;;;;;;14.43;12.93;;;;;;;18.04;86.44;99992.75;5073658;28;20566;-76
2022/08/19 02:30:27;;;;;;;15.20;11.70;;;;;;;18.07;86.79;99989.63;5062846;28;20456;-77
2022/08/19 02:32:54;;;;;;;15.33;13.17;;;;;;;18.04;86.78;99990.88;5063288;28;20448;-77
2022/08/19 02:35:21;;;;;;;19.60;12.27;;;;;;;18.04;86.56;99996.28;5064288;28;20441;-78
2022/08/19 02:40:34;;;;;;;13.67;12.20;;;;;;;18.08;86.86;100007.53;5076824;28;20474;-77
2022/08/19 02:43:01;;;;;;;20.13;12.40;;;;;;;18.09;86.49;99998.41;5067369;28;20455;-78
2022/08/19 02:45:33;;;;;;;15.00;12.30;;;;;;;18.08;86.22;99990.47;5059203;28;20533;-78
2022/08/19 02:47:59;;;;;;;15.90;10.90;;;;;;;18.05;86.48;99995.25;5054044;28;20534;-78
2022/08/19 02:50:26;;;;;;;15.53;13.77;;;;;;;18.01;86.66;99993.13;5045391;28;20482;-78
2022/08/19 02:52:53;;;;;;;17.20;14.10;;;;;;;18.04;86.97;99995.44;5059125;28;20443;-78
2022/08/19 02:55:20;;;;;;;17.50;13.23;;;;;;;17.98;86.68;99997.03;5062455;28;20490;-78
2022/08/19 02:57:47;;;;;;;21.47;15.03;;;;;;;17.88;87.26;99997.41;5067320;28;20492;-77
2022/08/19 03:00:14;;;;;;;19.47;14.90;;;;;;;17.92;87.46;99999.72;5056274;28;20964;-77
2022/08/19 03:02:42;;;;;;;15.00;13.30;;;;;;;17.91;87.34;99996.16;5080894;28;20441;-79
2022/08/19 03:05:10;;;;;;;17.33;14.83;;;;;;;17.91;87.43;100001.56;5070038;28;20457;-79
2022/08/19 03:07:37;;;;;;;18.77;15.03;;;;;;;17.87;87.30;100003.00;5076451;28;20476;-79
2022/08/19 03:10:05;;;;;;;18.97;14.80;;;;;;;17.85;87.79;100016.69;5069583;28;20468;-78
2022/08/19 03:12:32;;;;;;;18.60;15.50;;;;;;;17.80;87.88;100012.88;5095333;28;20501;-78
2022/08/19 03:14:59;;;;;;;20.97;16.40;;;;;;;17.73;88.17;100012.00;5099119;28;20474;-78
2022/08/19 03:17:25;;;;;;;25.03;15.63;;;;;;;17.76;87.85;100022.41;5102224;28;20474;-79
2022/08/19 03:19:53;;;;;;;15.33;13.73;;;;;;;17.76;87.75;100019.69;5095826;28;20444;-80
2022/08/19 03:22:20;;;;;;;20.80;15.60;;;;;;;17.75;87.97;100020.75;5082404;28;20533;-84
2022/08/19 03:24:47;;;;;;;16.00;14.00;;;;;;;17.75;87.77;100012.63;5096819;28;20451;-84
2022/08/19 03:27:14;;;;;;;21.10;15.20;;;;;;;17.70;87.64;100015.91;5101069;28;20483;-83
2022/08/19 03:29:40;;;;;;;18.70;14.70;;;;;;;17.67;87.91;100008.16;5089006;28;20472;-83
2022/08/19 03:32:07;;;;;;;18.20;14.40;;;;;;;17.67;87.97;100017.13;5087495;28;20479;-83
2022/08/19 03:34:35;;;;;;;18.57;14.40;;;;;;;17.66;87.89;100018.16;5097494;28;20969;-83
2022/08/19 03:37:07;;;;;;;17.90;15.17;;;;;;;17.63;87.72;100020.41;5083173;28;20480;-83
2022/08/19 03:39:34;;;;;;;22.20;15.73;;;;;;;17.58;87.93;100014.75;5098624;28;21051;-83
2022/08/19 03:42:02;;;;;;;17.30;14.57;;;;;;;17.54;88.41;100021.56;5084730;28;20476;-83
2022/08/19 03:44:30;;;;;;;24.27;17.63;;;;;;;17.54;88.94;100022.41;5088376;28;20456;-83
2022/08/19 03:46:58;;;;;;;24.80;17.00;;;;;;;17.54;88.94;100022.41;5081854;28;20479;-83
2022/08/19 03:49:28;;;;;;;20.40;15.93;;;;;;;17.55;88.63;100017.81;5085602;28;20482;-83
2022/08/19 03:51:55;;;;;;;16.27;14.50;;;;;;;17.56;88.45;100014.94;5087736;28;20491;-84
2022/08/19 03:54:24;;;;;;;18.50;15.07;;;;;;;17.57;88.52;100010.34;5099454;28;20505;-83
2022/08/19 03:56:53;;;;;;;21.57;16.50;;;;;;;17.59;88.74;100013.72;5086644;28;20472;-84
2022/08/19 03:59:25;;;;;;;24.50;18.03;;;;;;;17.62;88.57;100022.28;5083817;28;21071;-83
2022/08/19 04:01:52;;;;;;;19.30;17.13;;;;;;;17.57;88.85;100013.06;5093100;28;20563;-83
2022/08/19 04:04:19;;;;;;;21.43;18.50;;;;;;;17.52;88.98;100023.63;5080946;28;20522;-83
2022/08/19 04:06:47;;;;;;;21.37;16.67;;;;;;;17.53;89.25;100028.81;5092722;28;20483;-84
2022/08/19 04:09:14;;;;;;;22.00;17.63;;;;;;;17.53;89.35;100025.28;5102871;28;20443;-83
2022/08/19 04:11:46;;;;;;;25.07;16.97;;;;;;;17.52;89.51;100032.56;5100358;28;20471;-84
2022/08/19 04:14:16;;;;;;;22.67;17.30;;;;;;;17.47;89.46;100024.19;5084936;28;20654;-83
2022/08/19 04:16:44;;;;;;;22.10;18.77;;;;;;;17.49;89.26;100030.25;5080420;28;20479;-83
2022/08/19 04:19:11;;;;;;;23.77;17.93;;;;;;;17.47;89.30;100021.50;5073564;28;20461;-83
2022/08/19 04:21:38;;;;;;;26.60;18.70;;;;;;;17.42;89.57;100032.03;5062028;28;20530;-82
2022/08/19 04:24:05;;;;;;;27.70;19.37;;;;;;;17.46;89.54;100017.09;5064580;28;20461;-83
2022/08/19 04:26:34;;;;;;;23.40;18.83;;;;;;;17.70;89.79;100027.53;5061517;28;20484;-84
2022/08/19 04:29:05;;;;;;;26.17;17.00;;;;;;;17.95;88.67;100027.22;5067586;28;20460;-83
2022/08/19 04:31:35;;;;;;;22.07;17.73;;;;;;;18.22;87.36;100019.31;5065823;28;20511;-76
2022/08/19 04:34:03;;;;;;;20.13;16.57;;;;;;;18.30;85.87;100019.16;5070254;28;20989;-77
2022/08/19 04:36:31;;;;;;;19.10;15.20;;;;;;;18.52;84.97;100022.66;5071178;28;20471;-78
2022/08/19 04:39:00;;;;;;;21.33;16.33;;;;;;;18.67;83.46;100024.41;5069024;28;20524;-78
2022/08/19 04:44:25;;;;;;;17.30;14.27;;;;;;;18.89;81.86;100026.03;5014822;28;20438;-78
2022/08/19 04:46:52;;;;;;;18.30;14.17;;;;;;;19.00;81.11;100043.56;5071038;28;20503;-78
2022/08/19 04:49:22;;;;;;;18.40;14.13;;;;;;;19.00;81.05;100038.97;5087107;28;20497;-78
2022/08/19 04:51:49;;;;;;;18.07;12.20;;;;;;;19.08;80.77;100040.69;5083301;28;20484;-79
2022/08/19 04:54:17;;;;;;;21.93;14.50;;;;;;;19.24;79.89;100036.81;5066954;28;20472;-78
2022/08/19 04:56:44;;;;;;;18.77;14.37;;;;;;;19.27;79.17;100038.25;5069803;28;21076;-79
2022/08/19 04:59:11;;;;;;;18.90;13.40;;;;;;;19.44;78.76;100046.88;5068518;28;20445;-78
2022/08/19 05:01:39;;;;;;;16.83;15.10;;;;;;;19.52;77.94;100042.09;5071521;28;20861;-78
2022/08/19 05:04:07;;;;;;;16.03;13.07;;;;;;;19.62;77.17;100036.28;5068940;28;20483;-78
2022/08/19 05:06:34;;;;;;;17.07;13.03;;;;;;;19.69;76.91;100033.59;5083182;28;20483;-78
2022/08/19 05:09:02;;;;;;;18.07;13.50;;;;;;;20.01;75.71;100036.59;5085297;28;20451;-79
2022/08/19 05:11:31;;;;;;;19.17;12.17;;;;;;;20.27;74.52;100033.03;5084778;28;20476;-79
2022/08/19 05:13:58;;;;;;;12.97;11.53;;;;;;;20.80;72.17;100030.28;5078847;28;20461;-79
2022/08/19 05:16:27;;;;;;;12.53;11.30;;;;;;;20.83;71.69;100031.72;5057409;28;20480;-79
2022/08/19 05:24:27;;;;;;;12.50;9.27;;;;;;;21.40;69.13;100040.06;5077711;28;20463;-78
2022/08/19 05:26:56;;;;;;;12.33;9.90;;;;;;;21.80;67.62;100032.56;5085131;28;20480;-79
2022/08/19 05:29:24;;;;;;;12.73;10.00;;;;;;;22.72;63.82;100042.06;5068265;28;21048;-79
2022/08/19 05:31:51;;;;;;;10.67;9.07;;;;;;;23.35;61.24;100037.38;5072067;28;20483;-78
2022/08/19 05:34:22;;;;;;;9.57;8.13;;;;;;;23.19;61.52;100036.94;5078904;28;20464;-79
2022/08/19 05:36:50;;;;;;;11.87;8.80;;;;;;;22.99;61.92;100036.31;5083726;28;20944;-79
2022/08/19 05:39:19;;;;;;;10.63;8.83;;;;;;;23.35;60.71;100034.63;5069051;28;20444;-79
2022/08/19 05:41:47;;;;;;;13.70;9.37;;;;;;;23.29;60.53;100030.94;5067484;28;20473;-79
2022/08/19 05:44:13;;;;;;;12.17;8.67;;;;;;;24.09;58.54;100034.44;5063255;28;20528;-80
2022/08/19 05:46:41;;;;;;;10.27;8.10;;;;;;;24.43;56.88;100039.09;5078713;28;20540;-80
2022/08/19 05:49:08;;;;;;;9.40;8.07;;;;;;;23.99;57.70;100026.81;5072266;28;20471;-79
2022/08/19 05:51:37;;;;;;;9.30;8.40;;;;;;;23.57;58.90;100029.50;5063278;28;20503;-79
2022/08/19 05:54:05;;;;;;;9.50;8.60;;;;;;;22.70;61.79;100025.94;5063095;28;20464;-78
2022/08/19 05:56:35;;;;;;;10.10;8.77;;;;;;;22.22;63.40;100029.31;5048812;28;20506;-79
2022/08/19 05:59:02;;;;;;;9.43;8.40;;;;;;;22.23;64.04;100019.25;5043673;28;20437;-78
2022/08/19 06:01:28;;;;;;;9.77;8.87;;;;;;;21.71;64.94;100022.16;5061145;28;20544;-78
2022/08/19 06:03:55;;;;;;;10.67;7.43;;;;;;;22.47;63.87;100015.69;5061670;28;20456;-78
2022/08/19 06:06:23;;;;;;;9.90;8.80;;;;;;;22.98;61.20;100015.56;5060420;28;20500;-79
2022/08/19 06:08:51;;;;;;;10.30;8.03;;;;;;;23.91;58.79;100018.97;5061543;28;20499;-78
2022/08/19 06:11:20;;;;;;;9.47;8.23;;;;;;;24.69;55.97;100023.31;5060611;28;20476;-79
2022/08/19 06:13:49;;;;;;;11.63;8.00;;;;;;;24.99;54.74;100020.41;5061215;28;20448;-79
2022/08/19 06:16:22;;;;;;;9.47;8.50;;;;;;;25.47;52.84;100021.13;5058220;28;20485;-79
2022/08/19 06:18:51;;;;;;;8.63;7.83;;;;;;;25.99;51.24;100020.16;5058731;28;20461;-80
2022/08/19 06:21:18;;;;;;;8.43;7.17;;;;;;;27.26;47.73;100021.41;5072913;28;20468;-80
2022/08/19 06:23:45;;;;;;;9.50;7.47;;;;;;;27.74;46.17;100026.06;5083100;28;20474;-79
2022/08/19 06:26:15;;;;;;;8.00;7.20;;;;;;;26.85;47.86;100030.78;5082585;28;20468;-79
2022/08/19 06:28:46;;;;;;;7.90;7.20;;;;;;;26.81;47.79;100029.63;5082304;28;20526;-80
2022/08/19 06:31:14;;;;;;;9.47;7.47;;;;;;;27.26;47.53;100029.66;5082417;28;21071;-80
2022/08/19 06:33:41;;;;;;;7.57;6.60;;;;;;;28.08;45.02;100031.34;5084891;28;20512;-82
2022/08/19 06:36:09;;;;;;;6.47;5.87;;;;;;;28.08;44.45;100031.34;5083597;28;20471;-81
2022/08/19 06:38:36;;;;;;;8.03;5.40;;;;;;;29.18;42.78;100032.59;5083817;28;20455;-82
2022/08/19 06:41:03;;;;;;;8.07;6.57;;;;;;;28.51;43.82;100023.13;5083357;28;20472;-83
2022/08/19 06:43:31;;;;;;;7.67;6.80;;;;;;;28.52;43.80;100031.13;5083049;28;20420;-81
2022/08/19 06:45:59;;;;;;;7.10;4.93;;;;;;;29.65;41.47;100030.78;5081719;28;20496;-80
2022/08/19 06:48:25;;;;;;;6.77;6.03;;;;;;;29.43;41.32;100031.88;5074244;28;20476;-82
2022/08/19 06:50:52;;;;;;;6.90;6.13;;;;;;;28.57;43.40;100046.84;5063266;28;20473;-82
2022/08/19 06:53:19;;;;;;;8.23;5.20;;;;;;;29.45;41.94;100045.38;5063394;28;20440;-84
2022/08/19 06:55:46;;;;;;;8.40;6.07;;;;;;;28.98;42.65;100038.81;5066868;28;20547;-83
2022/08/19 06:58:13;;;;;;;5.80;5.20;;;;;;;29.74;41.61;100045.72;5082360;28;20455;-83
2022/08/19 07:00:42;;;;;;;6.57;5.73;;;;;;;30.12;40.15;100042.72;5070537;28;20590;-83
2022/08/19 07:03:08;;;;;;;7.93;5.10;;;;;;;30.31;39.99;100057.63;5067556;28;20515;-82
2022/08/19 07:05:39;;;;;;;8.33;6.20;;;;;;;28.93;42.97;100045.13;5062278;28;20502;-82
2022/08/19 07:08:07;;;;;;;6.73;5.93;;;;;;;30.60;39.13;100046.00;5063588;28;20468;-83
2022/08/19 07:10:34;;;;;;;6.20;5.60;;;;;;;31.27;38.33;100054.13;5064315;28;20449;-82
2022/08/19 07:13:01;;;;;;;6.40;5.70;;;;;;;31.66;37.10;100056.94;5073122;28;20493;-82
2022/08/19 07:15:28;;;;;;;6.33;5.23;;;;;;;30.90;38.72;100055.31;5081806;28;20461;-82
2022/08/19 07:17:56;;;;;;;5.80;5.30;;;;;;;30.92;38.92;100061.41;5085532;28;20438;-82
2022/08/19 07:20:23;;;;;;;7.50;6.43;;;;;;;30.19;39.86;100059.81;5081935;28;20445;-82
2022/08/19 07:22:50;;;;;;;6.60;5.90;;;;;;;29.83;40.67;100059.81;5086179;28;20404;-81
2022/08/19 07:25:18;;;;;;;7.67;5.23;;;;;;;32.28;36.68;100051.81;5081148;28;20480;-80
2022/08/19 07:27:45;;;;;;;7.77;7.00;;;;;;;30.70;39.09;100051.50;5075704;28;20493;-81
2022/08/19 07:30:13;;;;;;;7.80;6.30;;;;;;;31.97;37.38;100056.72;5069486;28;20430;-82
2022/08/19 07:32:40;;;;;;;6.23;5.23;;;;;;;32.02;36.58;100059.47;5064611;28;20471;-80
2022/08/19 07:35:09;;;;;;;9.07;6.17;;;;;;;30.20;40.39;100069.75;5066219;28;20442;-80
2022/08/19 07:37:36;;;;;;;6.00;5.40;;;;;;;29.01;43.25;100065.81;5064905;28;20425;-82
2022/08/19 07:40:04;;;;;;;7.83;5.30;;;;;;;31.41;38.19;100071.72;5066511;28;20447;-82
2022/08/19 07:42:31;;;;;;;4.50;4.10;;;;;;;32.46;35.92;100088.16;5065627;28;20489;-83
2022/08/19 07:44:58;;;;;;;6.13;4.90;;;;;;;32.78;35.31;100098.69;5066130;28;20464;-82
2022/08/19 07:47:27;;;;;;;4.47;4.07;;;;;;;33.22;34.54;100096.84;5063567;28;20551;-82
2022/08/19 07:49:54;;;;;;;6.57;4.70;;;;;;;33.31;34.13;100095.03;5064471;28;20446;-82
2022/08/19 07:52:22;;;;;;;5.87;4.87;;;;;;;33.43;33.51;100097.41;5064805;28;20477;-82
2022/08/19 07:54:49;;;;;;;5.47;4.97;;;;;;;33.44;33.87;100096.28;5063457;28;20483;-80
2022/08/19 07:57:16;;;;;;;5.03;4.63;;;;;;;33.79;33.13;100102.47;5079151;28;20488;-79
2022/08/19 07:59:43;;;;;;;5.80;4.43;;;;;;;34.54;32.06;100108.25;5086715;28;20433;-80
2022/08/19 08:02:10;;;;;;;5.60;4.00;;;;;;;34.83;32.12;100111.63;5082529;28;20466;-80
2022/08/19 08:10:08;;;;;;;5.10;4.00;;;;;;;32.21;36.41;100114.94;5090237;28;20420;-78
2022/08/19 08:12:40;;;;;;;5.57;4.80;;;;;;;32.01;36.35;100112.28;5090472;28;20537;-78
2022/08/19 08:15:10;;;;;;;6.20;4.50;;;;;;;31.69;37.28;100110.84;5090140;28;20522;-79
2022/08/19 08:17:38;;;;;;;4.67;4.27;;;;;;;31.95;37.10;100119.81;5088066;28;20451;-81
2022/08/19 08:20:07;;;;;;;4.67;3.67;;;;;;;33.89;34.31;100121.75;5089490;28;20452;-80
2022/08/19 08:25:22;;;;;;;5.93;3.70;;;;;;;31.81;36.42;100119.63;5088098;28;20486;-81
2022/08/19 08:27:49;;;;;;;7.73;3.40;;;;;;;32.42;35.82;100121.13;5070610;28;20553;-82
2022/08/19 08:30:18;;;;;;;5.10;3.33;;;;;;;31.76;36.43;100114.09;5071421;28;20441;-81
2022/08/19 08:32:45;;;;;;;3.57;3.10;;;;;;;30.24;38.91;100123.22;5069477;28;20450;-80
2022/08/19 08:35:14;;;;;;;3.97;3.57;;;;;;;29.53;40.57;100110.09;5068170;28;20472;-80
2022/08/19 08:37:43;;;;;;;4.27;3.30;;;;;;;31.25;37.83;100114.31;5069427;28;20429;-81
2022/08/19 08:40:18;;;;;;;3.70;3.40;;;;;;;32.71;35.34;100112.06;5066523;28;20464;-81
2022/08/19 08:42:51;;;;;;;6.20;3.67;;;;;;;29.60;40.39;100122.53;5048294;28;20458;-79
2022/08/19 08:45:19;;;;;;;7.07;3.90;;;;;;;28.06;43.20;100121.47;5047866;28;20480;-81
2022/08/19 08:47:49;;;;;;;3.87;3.10;;;;;;;29.90;39.17;100122.94;5048184;28;20475;-82
2022/08/19 08:50:23;;;;;;;6.37;3.80;;;;;;;31.15;37.62;100115.19;5051467;28;20434;-80
2022/08/19 08:52:54;;;;;;;5.73;3.60;;;;;;;32.59;35.09;100119.88;5048350;28;20453;-79
2022/08/19 08:55:24;;;;;;;4.50;4.10;;;;;;;30.89;36.18;100119.94;5057634;28;20503;-80
2022/08/19 08:57:54;;;;;;;4.50;3.40;;;;;;;29.34;40.46;100112.50;5071615;28;20460;-81
2022/08/19 09:00:26;;;;;;;8.30;3.57;;;;;;;29.32;40.45;100110.03;5070264;28;20419;-81
2022/08/19 09:02:53;;;;;;;5.40;3.80;;;;;;;28.22;43.36;100111.44;5071434;28;20491;-80
2022/08/19 09:05:21;;;;;;;4.40;3.97;;;;;;;30.18;38.95;100110.56;5073622;28;20437;-80
2022/08/19 09:08:03;;;;;;;4.00;3.00;;;;;;;29.62;40.53;100117.59;5073537;28;20474;-80
2022/08/19 09:10:32;;;;;;;5.30;2.93;;;;;;;29.84;39.64;100105.53;5072533;28;20567;-80
2022/08/19 09:13:08;;;;;;;4.27;3.00;;;;;;;29.58;38.60;100116.47;5073620;28;20446;-79
2022/08/19 09:15:37;;;;;;;3.43;3.13;;;;;;;29.87;38.58;100110.50;5069442;28;20463;-80
2022/08/19 09:18:06;;;;;;;5.03;3.43;;;;;;;31.90;35.53;100106.81;5072341;28;20455;-80
2022/08/19 09:20:33;;;;;;;5.90;3.10;;;;;;;31.81;34.85;100107.72;5067915;28;20541;-81
2022/08/19 09:23:00;;;;;;;5.13;2.93;;;;;;;30.83;35.79;100113.56;5067363;28;20499;-82
2022/08/19 09:25:28;;;;;;;3.50;3.13;;;;;;;32.05;34.06;100117.00;5078892;28;20504;-80
2022/08/19 09:27:56;;;;;;;5.43;2.80;;;;;;;31.59;34.61;100119.19;5066457;28;20541;-81
2022/08/19 09:30:26;;;;;;;3.50;3.20;;;;;;;30.50;36.84;100117.75;5064024;28;20453;-80
2022/08/19 09:32:53;;;;;;;3.60;2.90;;;;;;;32.81;33.43;100111.09;5065548;28;20440;-81
2022/08/19 09:35:21;;;;;;;4.37;3.20;;;;;;;31.20;35.22;100100.53;5065953;28;20522;-82
2022/08/19 09:37:49;;;;;;;7.77;4.00;;;;;;;30.74;36.08;100110.53;5065716;28;20458;-81
2022/08/19 09:40:16;;;;;;;4.47;4.07;;;;;;;30.85;35.97;100105.00;5065143;28;20560;-82
2022/08/19 09:42:46;;;;;;;3.80;3.23;;;;;;;32.47;33.25;100104.47;5065331;28;20457;-81
2022/08/19 09:45:13;;;;;;;3.30;2.93;;;;;;;32.21;33.16;100108.59;5063626;28;20489;-81
2022/08/19 09:47:40;;;;;;;4.20;3.70;;;;;;;30.93;35.19;100112.75;5065248;28;20466;-81
2022/08/19 09:50:08;;;;;;;5.00;3.03;;;;;;;32.72;32.48;100110.91;5065025;28;20446;-80
2022/08/19 09:52:36;;;;;;;5.30;3.90;;;;;;;31.82;34.06;100106.59;5063664;28;20918;-81
2022/08/19 09:55:04;;;;;;;4.87;4.10;;;;;;;32.01;35.00;100117.81;5077514;28;20572;-81
2022/08/19 09:57:30;;;;;;;4.13;3.60;;;;;;;33.12;33.02;100103.28;5084276;28;20481;-81
2022/08/19 09:59:58;;;;;;;5.10;2.70;;;;;;;33.59;32.04;100109.09;5084066;28;20424;-80
2022/08/19 10:02:25;;;;;;;4.00;2.93;;;;;;;30.08;36.21;100110.53;5083445;28;20477;-81
2022/08/19 10:07:37;;;;;;;3.10;2.80;;;;;;;29.77;37.78;100102.22;5087465;28;20464;-79
2022/08/19 10:10:05;;;;;;;4.57;4.07;;;;;;;31.41;34.86;100106.81;5070351;28;20476;-80
2022/08/19 10:12:33;;;;;;;5.20;3.20;;;;;;;32.84;32.20;100108.56;5064924;28;20485;-80
2022/08/19 10:15:01;;;;;;;2.60;2.40;;;;;;;33.49;30.89;100104.53;5065752;28;20528;-82
2022/08/19 10:17:28;;;;;;;3.83;2.53;;;;;;;32.58;31.81;100107.97;5064220;28;20473;-82
2022/08/19 10:19:55;;;;;;;4.93;2.77;;;;;;;31.48;34.45;100094.31;5067225;28;20486;-81
2022/08/19 10:22:21;;;;;;;5.23;2.50;;;;;;;30.70;36.87;100117.75;5064053;28;20469;-81
2022/08/19 10:24:49;;;;;;;3.23;2.87;;;;;;;30.12;35.85;100108.88;5064678;28;20465;-80
2022/08/19 10:27:15;;;;;;;5.80;2.13;;;;;;;29.87;35.24;100112.44;5063740;28;20889;-81
2022/08/19 10:29:42;;;;;;;4.10;2.13;;;;;;;30.77;33.93;100111.94;5062539;28;20485;-81
2022/08/19 10:32:10;;;;;;;1.83;1.40;;;;;;;32.74;28.98;100108.72;5062215;28;20482;-80
2022/08/19 10:34:38;;;;;;;1.63;1.53;;;;;;;33.20;27.82;100105.44;5063406;28;20473;-80
2022/08/19 10:37:05;;;;;;;1.80;1.60;;;;;;;33.33;28.29;100103.91;5062542;28;20516;-81
2022/08/19 10:39:33;;;;;;;3.47;1.80;;;;;;;33.65;27.96;100096.81;5063305;28;20474;-81
2022/08/19 10:42:00;;;;;;;2.23;1.63;;;;;;;34.49;27.17;100095.28;5060827;28;20473;-82
2022/08/19 10:44:29;;;;;;;1.70;1.60;;;;;;;34.25;27.64;100099.03;5061813;28;20459;-81
2022/08/19 10:46:56;;;;;;;2.73;2.30;;;;;;;33.32;29.60;100093.94;5062362;28;20532;-83
2022/08/19 10:49:24;;;;;;;2.47;2.00;;;;;;;34.42;28.19;100092.06;5063828;28;20857;-81
2022/08/19 10:57:19;;;;;;;2.90;2.30;;;;;;;32.54;31.25;100078.44;5041740;28;20482;-80
2022/08/19 10:59:46;;;;;;;4.00;2.30;;;;;;;33.92;29.52;100074.00;5042002;28;20432;-82
2022/08/19 11:02:13;;;;;;;3.33;2.27;;;;;;;33.70;29.15;100066.28;5042132;28;20482;-82
2022/08/19 11:04:41;;;;;;;3.60;2.23;;;;;;;34.67;27.59;100076.94;5042793;28;20486;-83
2022/08/19 11:07:09;;;;;;;3.40;2.23;;;;;;;34.36;28.43;100074.69;5041136;28;20506;-82
2022/08/19 11:09:39;;;;;;;2.07;1.87;;;;;;;33.65;28.12;100066.34;5046436;28;20485;-84
2022/08/19 11:12:07;;;;;;;3.37;2.10;;;;;;;33.05;29.24;100066.81;5039765;28;20499;-82
2022/08/19 11:14:34;;;;;;;3.83;2.43;;;;;;;33.61;28.41;100058.91;5040149;28;20459;-82
2022/08/19 11:17:01;;;;;;;1.93;1.73;;;;;;;33.53;28.71;100069.53;5055157;28;20569;-82
2022/08/19 11:19:28;;;;;;;3.10;2.00;;;;;;;33.58;28.51;100068.66;5060933;28;20446;-83
2022/08/19 11:21:56;;;;;;;2.20;2.00;;;;;;;33.07;29.42;100063.75;5059159;28;20476;-82
2022/08/19 11:24:24;;;;;;;2.43;2.10;;;;;;;33.05;29.43;100068.75;5041839;28;20470;-83
2022/08/19 11:26:56;;;;;;;2.57;2.10;;;;;;;32.79;30.05;100061.59;5060052;28;20474;-82
2022/08/19 11:29:25;;;;;;;3.83;2.13;;;;;;;33.75;27.50;100057.91;5061440;28;20475;-83
2022/08/19 11:31:52;;;;;;;2.20;2.00;;;;;;;32.95;29.95;100056.69;5060866;28;20478;-82
2022/08/19 11:34:21;;;;;;;3.30;2.00;;;;;;;33.01;29.07;100046.38;5043720;28;20458;-82
2022/08/19 11:36:49;;;;;;;2.20;1.80;;;;;;;33.41;28.46;100058.06;5055357;28;20475;-82
2022/08/19 11:39:19;;;;;;;2.10;1.90;;;;;;;34.24;27.56;100058.53;5062221;28;20424;-82
2022/08/19 11:41:46;;;;;;;2.27;2.07;;;;;;;34.65;27.45;100059.72;5060209;28;20479;-83
2022/08/19 11:44:14;;;;;;;3.43;2.20;;;;;;;33.44;27.53;100057.47;5061008;28;20488;-83
2022/08/19 11:46:45;;;;;;;3.40;2.03;;;;;;;34.25;27.41;100051.00;5065193;28;20482;-83
2022/08/19 11:49:12;;;;;;;3.23;2.20;;;;;;;33.31;29.08;100045.16;5081826;28;20477;-83
2022/08/19 11:51:38;;;;;;;2.80;2.40;;;;;;;34.00;27.96;100043.94;5080872;28;20474;-82